• Join FlightAware (Why Join?)
  • Login
  • US Flag 
12:40AM EST


 

Airport Tracker/Info


-or-


 

Live Flight TrackerFlight Track Log ✈ DLH2037 ✈ 24-Apr-2013 ✈ EDDT / TXL - EDDM / MUC

Flight Track Log - Related Links

Times and Time Zones

All times are in EDT time to prevent confusion due to time zone crossing. See the DLH2037 flight status page for this flight to view local times or setup timezone preferences in your user account.

Time Position Orientation Groundspeed Altitude Reporting Facility
EDT Latitude Longitude Course Direction KTS MPH feet Rate Location/Type
07:15AM 52.2921 13.1836 193° South  Level Estimated
07:16AM 52.2029 13.1492 193° South  Level Estimated
07:17AM 52.1137 13.1149 193° South  Level Estimated
07:18AM 52.0244 13.0807 193° South  Level Estimated
07:19AM 51.9352 13.0467 193° South  Level Estimated
07:20AM 51.8460 13.0128 193° South  Level Estimated
07:21AM 51.7567 12.9791 193° South  Level Estimated
07:22AM 51.6674 12.9455 193° South  Level Estimated
07:23AM 51.5782 12.9120 193° South  Level Estimated
07:24AM 51.4889 12.8786 193° South  Level Estimated
07:25AM 51.3812 12.8386 193° South  Level Estimated
07:26AM 51.2736 12.7988 193° South  Level Estimated
07:27AM 51.1660 12.7592 193° South  Level Estimated
07:28AM 51.0583 12.7197 193° South  Level Estimated
07:29AM 50.9506 12.6804 193° South  Level Estimated
07:30AM 50.8429 12.6413 193° South  Level Estimated
07:31AM 50.7352 12.6024 193° South  Level Estimated
07:32AM 50.6275 12.5637 193° South  Level Estimated
07:33AM 50.5198 12.5251 193° South  Level Estimated
07:34AM 50.4121 12.4868 193° South  Level Estimated
07:35AM 50.3043 12.4486 193° South  Level Estimated
07:36AM 50.1966 12.4105 193° South  Level Estimated
07:37AM 50.0888 12.3727 193° South  Level Estimated
07:38AM 49.9810 12.3350 193° South  Level Estimated
07:39AM 49.8732 12.2974 193° South  Level Estimated
07:40AM 49.7654 12.2601 193° South  Level Estimated
07:41AM 49.6576 12.2229 193° South  Level Estimated
07:42AM 49.5498 12.1859 193° South  Level Estimated
07:43AM 49.4419 12.1490 193° South  Level Estimated
07:44AM 49.3340 12.1123 193° South  Level Estimated
07:45AM 49.2262 12.0758 192° South  Level Estimated
07:46AM 49.1183 12.0394 192° South  Level Estimated
07:47AM 49.0104 12.0031 192° South  Level Estimated
07:48AM 48.9025 11.9671 192° South  Level Estimated
07:49AM 48.7946 11.9312 192° South  Level Estimated
07:50AM 48.6867 11.8954 192° South  Level Estimated
07:51AM 48.5787 11.8598 192° South  Level Estimated
07:52AM 48.4708 11.8243 192° South  Level Estimated
07:53AM 48.3628 11.7890 192° South  Level Estimated
07:54AM 48.3538 11.7861 192° South  Level Estimated
07:55AM 48.3538 11.7861 318° Northwest  Level Estimated
07:56AM 48.3538 11.7861 318° Northwest  Level Estimated
07:57AM 48.3538 11.7861 318° Northwest  Level Estimated
07:58AM 48.3538 11.7861 318° Northwest  Level Estimated
07:59AM 48.3538 11.7861 318° Northwest  Level Estimated
08:00AM 48.3538 11.7861 318° Northwest  Level Estimated
08:01AM 48.3538 11.7861 318° Northwest  Level Estimated
08:02AM 48.3538 11.7861 318° Northwest  Level Estimated
08:03AM 48.3538 11.7861 318° Northwest  Level Estimated
08:04AM 48.3538 11.7861 318° Northwest  Level Estimated
08:05AM 48.3538 11.7861 318° Northwest  Level Estimated
08:06AM 48.3538 11.7861 318° Northwest  Level Estimated
08:07AM 48.3538 11.7861 318° Northwest  Level Estimated